createdAt,value
2019-04-26T00:00:16.499Z,13.00
2019-04-26T00:03:03.710Z,13.00
2019-04-26T00:05:48.894Z,13.10
2019-04-26T00:08:34.895Z,13.10
2019-04-26T00:11:34.560Z,13.10
2019-04-26T00:14:39.254Z,13.20
2019-04-26T00:17:31.737Z,13.20
2019-04-26T00:20:17.183Z,13.20
2019-04-26T00:23:02.217Z,13.20
2019-04-26T00:25:47.434Z,13.10
2019-04-26T00:28:33.130Z,13.00
2019-04-26T00:31:19.244Z,13.00
2019-04-26T00:34:04.698Z,12.70
2019-04-26T00:36:49.882Z,12.60
2019-04-26T00:39:35.358Z,12.60
2019-04-26T00:42:21.150Z,12.50
2019-04-26T00:45:07.219Z,12.40
2019-04-26T00:47:53.299Z,12.40
2019-04-26T00:50:38.668Z,12.30
2019-04-26T00:53:27.245Z,12.10
2019-04-26T00:56:14.545Z,12.10
2019-04-26T00:59:00.003Z,12.00
2019-04-26T01:01:47.240Z,11.80
2019-04-26T01:04:32.258Z,11.80
2019-04-26T01:07:17.363Z,11.80
2019-04-26T01:10:03.122Z,11.80
2019-04-26T01:12:48.285Z,11.70
2019-04-26T01:15:33.732Z,11.50
2019-04-26T01:18:18.355Z,11.40
2019-04-26T01:21:05.565Z,11.50
2019-04-26T01:23:54.215Z,11.60
2019-04-26T01:26:39.842Z,11.60
2019-04-26T01:29:25.971Z,11.60
2019-04-26T01:32:11.982Z,11.50
2019-04-26T01:34:57.305Z,11.50
2019-04-26T01:37:45.191Z,11.40
2019-04-26T01:40:32.427Z,11.40
2019-04-26T01:43:32.799Z,11.40
2019-04-26T01:46:38.235Z,11.30
2019-04-26T01:49:24.133Z,11.20
2019-04-26T01:52:09.895Z,11.10
2019-04-26T01:54:55.217Z,11.00
2019-04-26T01:57:40.989Z,11.10
2019-04-26T02:00:33.975Z,11.10
2019-04-26T02:03:23.952Z,11.00
2019-04-26T02:06:09.078Z,10.90
2019-04-26T02:08:54.658Z,10.90
2019-04-26T02:11:40.634Z,10.70
2019-04-26T02:14:26.906Z,10.70
2019-04-26T02:17:12.417Z,10.80
2019-04-26T02:19:57.568Z,10.80
2019-04-26T02:23:00.333Z,10.80
2019-04-26T02:25:46.087Z,10.70
2019-04-26T02:28:32.388Z,10.40
2019-04-26T02:31:18.453Z,10.30
2019-04-26T02:34:04.174Z,10.40
2019-04-26T02:36:57.658Z,10.50
2019-04-26T02:39:40.003Z,10.60
2019-04-26T02:42:32.949Z,10.60
2019-04-26T02:45:30.957Z,10.60
2019-04-26T02:48:29.114Z,10.60
2019-04-26T02:51:21.714Z,10.60
2019-04-26T02:54:10.597Z,10.30
2019-04-26T02:56:58.717Z,10.20
2019-04-26T02:59:46.192Z,10.10
2019-04-26T03:02:33.305Z,10.20
2019-04-26T03:05:19.103Z,10.30
2019-04-26T03:08:08.043Z,10.40
2019-04-26T03:10:56.794Z,10.50
2019-04-26T03:13:47.462Z,10.40
2019-04-26T03:16:39.436Z,10.40
2019-04-26T03:19:39.697Z,10.30
2019-04-26T03:22:28.885Z,10.20
2019-04-26T03:25:20.563Z,10.30
2019-04-26T03:28:21.657Z,10.40
2019-04-26T03:31:27.245Z,10.40
2019-04-26T03:34:21.279Z,10.40
2019-04-26T03:37:34.475Z,10.30
2019-04-26T03:40:44.612Z,10.30
2019-04-26T03:43:45.893Z,10.20
2019-04-26T03:46:35.653Z,10.10
2019-04-26T03:49:38.039Z,10.10
2019-04-26T03:52:44.074Z,10.20
2019-04-26T03:55:45.450Z,10.30
2019-04-26T03:58:57.086Z,10.30
2019-04-26T04:01:57.114Z,10.30
2019-04-26T04:04:59.549Z,10.30
2019-04-26T04:07:51.386Z,10.40
2019-04-26T04:10:43.570Z,10.30
2019-04-26T04:13:38.998Z,10.30
2019-04-26T04:16:48.980Z,10.20
2019-04-26T04:19:54.819Z,10.20
2019-04-26T04:23:18.610Z,10.20
2019-04-26T04:26:05.739Z,10.20
2019-04-26T04:29:17.618Z,10.30
2019-04-26T04:32:18.123Z,10.40
2019-04-26T04:35:10.089Z,10.50
2019-04-26T04:38:09.796Z,10.60
2019-04-26T04:41:18.225Z,10.70
2019-04-26T04:44:20.787Z,10.80
2019-04-26T04:47:23.503Z,10.80
2019-04-26T04:50:28.617Z,10.80
2019-04-26T04:53:17.044Z,10.90
2019-04-26T04:56:14.288Z,10.80
2019-04-26T04:59:12.335Z,10.80
2019-04-26T05:02:09.389Z,10.90
2019-04-26T05:05:16.900Z,11.00
2019-04-26T05:08:08.759Z,11.10
2019-04-26T05:10:57.529Z,11.20
2019-04-26T05:14:01.958Z,11.30
2019-04-26T05:17:15.273Z,11.30
2019-04-26T05:20:30.738Z,11.20
2019-04-26T05:23:42.234Z,11.20
2019-04-26T05:26:57.317Z,11.30
2019-04-26T05:29:57.032Z,11.30
2019-04-26T05:33:02.656Z,11.30
2019-04-26T05:36:02.229Z,11.40
2019-04-26T05:39:02.458Z,11.40
2019-04-26T05:42:16.085Z,11.50
2019-04-26T05:45:15.393Z,11.50
2019-04-26T05:48:21.337Z,11.50
2019-04-26T05:51:32.013Z,11.60
2019-04-26T05:54:47.514Z,11.60
2019-04-26T05:57:52.694Z,11.60
2019-04-26T06:00:52.092Z,11.70
2019-04-26T06:03:49.679Z,11.70
2019-04-26T06:06:57.207Z,11.70
2019-04-26T06:09:47.981Z,11.70
2019-04-26T06:13:12.712Z,11.80
2019-04-26T06:16:21.559Z,11.90
2019-04-26T06:19:23.631Z,11.90
2019-04-26T06:22:30.149Z,12.00
2019-04-26T06:25:26.829Z,12.00
2019-04-26T06:28:36.296Z,12.00
2019-04-26T06:32:00.479Z,12.10
2019-04-26T06:34:55.084Z,12.10
2019-04-26T06:38:04.582Z,12.10
2019-04-26T06:41:17.960Z,12.10
2019-04-26T06:44:11.453Z,12.20
2019-04-26T06:47:02.306Z,12.20
2019-04-26T06:50:02.068Z,12.30
2019-04-26T06:52:50.759Z,12.30
2019-04-26T06:55:41.149Z,12.30
2019-04-26T06:58:53.951Z,12.30
2019-04-26T07:01:56.343Z,12.40
2019-04-26T07:04:51.689Z,12.50
2019-04-26T07:07:52.658Z,12.50
2019-04-26T07:10:48.525Z,12.50
2019-04-26T07:14:04.767Z,12.60
2019-04-26T07:17:08.648Z,12.60
2019-04-26T07:20:20.662Z,12.70
2019-04-26T07:23:41.479Z,12.80
2019-04-26T07:27:05.543Z,12.80
2019-04-26T07:30:09.894Z,12.80
2019-04-26T07:33:14.521Z,12.90
2019-04-26T07:36:15.240Z,12.80
2019-04-26T07:39:20.003Z,12.80
2019-04-26T07:42:33.583Z,12.70
2019-04-26T07:45:49.889Z,12.70
2019-04-26T07:48:47.357Z,12.60
2019-04-26T07:51:53.995Z,12.50
2019-04-26T07:55:09.183Z,12.50
2019-04-26T07:58:32.176Z,12.40
2019-04-26T08:01:49.470Z,12.40
2019-04-26T08:04:37.888Z,12.40
2019-04-26T08:07:26.722Z,12.30
2019-04-26T08:10:15.192Z,12.20
2019-04-26T08:13:10.153Z,12.20
2019-04-26T08:16:21.664Z,12.00
2019-04-26T08:19:16.158Z,11.90
2019-04-26T08:22:14.790Z,11.90
2019-04-26T08:24:54.173Z,11.80
2019-04-26T08:27:41.432Z,11.80
2019-04-26T08:30:30.288Z,11.80
2019-04-26T08:33:23.547Z,11.80
2019-04-26T08:36:11.331Z,11.80
2019-04-26T08:39:00.501Z,11.90
2019-04-26T08:41:47.351Z,11.80
2019-04-26T08:44:42.616Z,11.80
2019-04-26T08:47:30.422Z,11.80
2019-04-26T08:50:20.677Z,11.90
2019-04-26T08:53:07.236Z,11.90
2019-04-26T08:55:54.047Z,11.90
2019-04-26T08:58:42.557Z,11.90
2019-04-26T09:01:35.848Z,11.80
2019-04-26T09:04:28.333Z,11.80
2019-04-26T09:07:19.162Z,11.80
2019-04-26T09:10:11.129Z,11.80
2019-04-26T09:12:58.046Z,11.80
2019-04-26T09:15:47.042Z,11.80
2019-04-26T09:18:42.358Z,11.80
2019-04-26T09:21:21.283Z,11.80
2019-04-26T09:24:08.583Z,11.70
2019-04-26T09:27:13.302Z,11.70
2019-04-26T09:30:04.343Z,11.60
2019-04-26T09:33:04.084Z,11.60
2019-04-26T09:35:49.502Z,11.60
2019-04-26T09:38:34.376Z,11.60
2019-04-26T09:41:19.606Z,11.60
2019-04-26T09:44:09.496Z,11.60
2019-04-26T09:46:59.929Z,11.60
2019-04-26T09:49:49.967Z,11.60
2019-04-26T09:52:36.714Z,11.60
2019-04-26T09:55:34.530Z,11.60
2019-04-26T09:58:09.001Z,11.60
2019-04-26T10:00:54.508Z,11.60
2019-04-26T10:03:39.835Z,11.60
2019-04-26T10:06:26.078Z,11.40
2019-04-26T10:09:17.281Z,11.50
2019-04-26T10:12:03.806Z,11.40
2019-04-26T10:14:53.250Z,11.40
2019-04-26T10:17:38.556Z,11.30
2019-04-26T10:20:24.087Z,11.30
2019-04-26T10:23:08.923Z,11.30
2019-04-26T10:25:54.197Z,11.30
2019-04-26T10:28:41.072Z,11.30
2019-04-26T10:31:27.260Z,11.30
2019-04-26T10:34:13.060Z,11.30
2019-04-26T10:37:01.512Z,11.30
2019-04-26T10:39:45.243Z,11.30
2019-04-26T10:42:31.161Z,11.30
2019-04-26T10:45:16.778Z,11.30
2019-04-26T10:48:01.707Z,11.30
2019-04-26T10:50:47.118Z,11.30
2019-04-26T10:53:51.259Z,11.40
2019-04-26T10:56:40.637Z,11.50
2019-04-26T10:59:27.862Z,11.50
2019-04-26T11:02:16.078Z,11.60
2019-04-26T11:05:01.158Z,11.60
2019-04-26T11:07:46.435Z,11.70
2019-04-26T11:10:33.420Z,11.70
2019-04-26T11:13:18.690Z,11.60
2019-04-26T11:16:07.272Z,11.70
2019-04-26T11:18:52.417Z,11.70
2019-04-26T11:21:37.344Z,11.80
2019-04-26T11:24:22.480Z,11.80
2019-04-26T11:27:09.559Z,11.80
2019-04-26T11:29:54.770Z,11.80
2019-04-26T11:32:39.884Z,11.80
2019-04-26T11:35:24.739Z,11.90
2019-04-26T11:38:09.731Z,12.00
2019-04-26T11:41:06.013Z,12.00
2019-04-26T11:43:41.468Z,12.00
2019-04-26T11:46:29.231Z,12.10
2019-04-26T11:49:13.383Z,12.20
2019-04-26T11:52:02.515Z,12.30
2019-04-26T11:54:45.282Z,12.40
2019-04-26T11:57:30.542Z,12.50
2019-04-26T12:00:17.687Z,12.50
2019-04-26T12:03:03.137Z,12.60
2019-04-26T12:05:50.382Z,12.70
2019-04-26T12:08:48.804Z,12.70
2019-04-26T12:11:35.273Z,12.80
2019-04-26T12:14:20.822Z,12.80
2019-04-26T12:17:05.834Z,12.80
2019-04-26T12:19:52.336Z,12.80
2019-04-26T12:22:39.508Z,12.80
2019-04-26T12:25:24.425Z,12.80
2019-04-26T12:28:09.794Z,12.80
2019-04-26T12:30:58.428Z,12.90
2019-04-26T12:33:43.635Z,12.90
2019-04-26T12:36:30.557Z,12.90
2019-04-26T12:39:16.621Z,12.90
2019-04-26T12:42:03.052Z,12.80
2019-04-26T12:45:01.427Z,12.80
2019-04-26T12:47:54.495Z,12.80
2019-04-26T12:50:39.337Z,12.60
2019-04-26T12:53:26.858Z,12.60
2019-04-26T12:56:11.527Z,12.60
2019-04-26T12:58:56.812Z,12.50
2019-04-26T13:01:42.596Z,12.50
2019-04-26T13:04:36.094Z,12.50
2019-04-26T13:07:23.705Z,12.40
2019-04-26T13:10:26.437Z,12.40
2019-04-26T13:13:19.200Z,12.30
2019-04-26T13:16:11.498Z,12.30
2019-04-26T13:18:56.201Z,12.40
2019-04-26T13:21:41.064Z,12.50
2019-04-26T13:24:27.272Z,12.60
2019-04-26T13:27:12.447Z,12.60
2019-04-26T13:30:02.538Z,12.60
2019-04-26T13:32:44.652Z,12.50
2019-04-26T13:35:29.564Z,12.50
2019-04-26T13:38:16.437Z,12.50
2019-04-26T13:41:04.768Z,12.60
2019-04-26T13:43:48.787Z,12.60
2019-04-26T13:46:52.321Z,12.60
2019-04-26T13:49:39.096Z,12.50
2019-04-26T13:52:24.698Z,12.40
2019-04-26T13:55:10.596Z,12.40
2019-04-26T13:57:56.060Z,12.40
2019-04-26T14:00:43.602Z,12.40
2019-04-26T14:03:31.617Z,12.30
2019-04-26T14:06:16.111Z,12.30
2019-04-26T14:09:03.047Z,12.30
2019-04-26T14:11:48.122Z,12.30
2019-04-26T14:14:34.154Z,12.30
2019-04-26T14:17:20.134Z,12.30
2019-04-26T14:20:05.327Z,12.30
2019-04-26T14:23:07.327Z,12.40
2019-04-26T14:26:05.281Z,12.40
2019-04-26T14:28:50.432Z,12.40
2019-04-26T14:31:35.230Z,12.50
2019-04-26T14:34:19.919Z,12.50
2019-04-26T14:37:06.823Z,12.60
2019-04-26T14:39:55.393Z,12.60
2019-04-26T14:42:45.987Z,12.70
2019-04-26T14:45:27.154Z,12.70
2019-04-26T14:48:20.534Z,12.70
2019-04-26T14:51:07.966Z,12.80
2019-04-26T14:53:47.448Z,12.80
2019-04-26T14:56:32.891Z,12.80
2019-04-26T14:59:20.241Z,12.90
2019-04-26T15:02:10.433Z,13.10
2019-04-26T15:04:58.144Z,13.10
2019-04-26T15:07:51.006Z,13.20
2019-04-26T15:10:44.377Z,13.20
2019-04-26T15:13:23.593Z,13.20
2019-04-26T15:16:10.536Z,13.20
2019-04-26T15:18:56.103Z,13.20
2019-04-26T15:21:42.211Z,13.30
2019-04-26T15:24:30.137Z,13.30
2019-04-26T15:27:14.088Z,13.30
2019-04-26T15:30:01.663Z,13.20
2019-04-26T15:32:47.217Z,13.10
2019-04-26T15:35:35.793Z,13.10
2019-04-26T15:38:20.615Z,13.10
2019-04-26T15:41:24.075Z,13.10
2019-04-26T15:44:11.997Z,13.00
2019-04-26T15:47:06.089Z,12.90
2019-04-26T15:50:10.026Z,12.90
2019-04-26T15:52:55.371Z,12.90
2019-04-26T15:55:41.934Z,12.90
2019-04-26T15:58:27.366Z,13.00
2019-04-26T16:01:13.838Z,13.10
2019-04-26T16:03:59.458Z,13.10
2019-04-26T16:06:45.119Z,13.10
2019-04-26T16:09:32.259Z,13.00
2019-04-26T16:12:20.285Z,13.00
2019-04-26T16:15:06.503Z,13.10
2019-04-26T16:17:52.175Z,13.20
2019-04-26T16:20:39.385Z,13.30
2019-04-26T16:23:24.513Z,13.30
2019-04-26T16:26:12.768Z,13.40
2019-04-26T16:29:05.522Z,13.40
2019-04-26T16:32:02.776Z,13.40
2019-04-26T16:34:50.341Z,13.40
2019-04-26T16:37:35.357Z,13.40
2019-04-26T16:40:21.107Z,13.40
2019-04-26T16:43:07.345Z,13.30
2019-04-26T16:45:54.265Z,13.30
2019-04-26T16:48:39.267Z,13.30
2019-04-26T16:51:24.227Z,13.30
2019-04-26T16:54:11.135Z,13.20
2019-04-26T16:56:58.841Z,13.10
2019-04-26T16:59:51.016Z,13.10
2019-04-26T17:02:34.731Z,13.00
2019-04-26T17:05:23.995Z,12.90
2019-04-26T17:08:10.172Z,12.90
2019-04-26T17:10:56.378Z,12.80
2019-04-26T17:13:48.386Z,12.80
2019-04-26T17:16:25.828Z,12.70
2019-04-26T17:19:13.749Z,12.70
2019-04-26T17:22:06.761Z,12.70
2019-04-26T17:24:53.533Z,12.70
2019-04-26T17:27:40.301Z,12.60
2019-04-26T17:30:27.019Z,12.60
2019-04-26T17:33:13.094Z,12.60
2019-04-26T17:35:58.757Z,12.60
2019-04-26T17:38:44.277Z,12.60
2019-04-26T17:41:29.285Z,12.60
2019-04-26T17:44:14.736Z,12.60
2019-04-26T17:47:02.050Z,12.60
2019-04-26T17:49:47.076Z,12.60
2019-04-26T17:52:36.140Z,12.60
2019-04-26T17:55:19.042Z,12.60
2019-04-26T17:58:11.773Z,12.60
2019-04-26T18:00:52.291Z,12.50
2019-04-26T18:03:37.851Z,12.50
2019-04-26T18:06:29.491Z,12.30
2019-04-26T18:09:18.562Z,12.10
2019-04-26T18:12:00.060Z,12.10
2019-04-26T18:14:43.958Z,12.10
2019-04-26T18:17:40.153Z,12.20
2019-04-26T18:20:42.931Z,12.20
2019-04-26T18:23:30.521Z,12.10
2019-04-26T18:26:17.386Z,12.10
2019-04-26T18:29:03.842Z,12.10
2019-04-26T18:31:49.349Z,12.00
2019-04-26T18:34:40.073Z,11.90
2019-04-26T18:37:23.134Z,11.80
2019-04-26T18:40:08.691Z,11.60
2019-04-26T18:42:55.087Z,11.60
2019-04-26T18:45:40.827Z,11.60
2019-04-26T18:48:26.059Z,11.70
2019-04-26T18:51:12.215Z,11.70
2019-04-26T18:54:17.803Z,11.70
2019-04-26T18:57:03.373Z,11.60
2019-04-26T18:59:51.315Z,11.60
2019-04-26T19:02:36.076Z,11.60
2019-04-26T19:05:26.999Z,11.60
2019-04-26T19:08:09.978Z,11.60
2019-04-26T19:11:01.171Z,11.60
2019-04-26T19:13:51.536Z,11.50
2019-04-26T19:16:50.214Z,11.40
2019-04-26T19:19:36.964Z,11.30
2019-04-26T19:22:22.633Z,11.30
2019-04-26T19:25:19.098Z,11.30
2019-04-26T19:27:58.908Z,11.30
2019-04-26T19:30:49.021Z,11.30
2019-04-26T19:33:31.370Z,11.20
2019-04-26T19:36:17.760Z,11.20
2019-04-26T19:39:05.618Z,11.20
2019-04-26T19:41:53.587Z,11.20
2019-04-26T19:44:38.119Z,11.20
2019-04-26T19:47:27.827Z,11.10
2019-04-26T19:50:14.706Z,11.10
2019-04-26T19:53:10.400Z,11.10
2019-04-26T19:55:57.277Z,11.10
2019-04-26T19:58:46.000Z,11.00
2019-04-26T20:01:31.614Z,11.00
2019-04-26T20:04:16.614Z,11.00
2019-04-26T20:07:02.186Z,10.90
2019-04-26T20:09:47.221Z,10.90
2019-04-26T20:12:35.443Z,10.80
2019-04-26T20:15:25.806Z,10.90
2019-04-26T20:18:06.773Z,10.90
2019-04-26T20:20:52.163Z,10.90
2019-04-26T20:23:43.693Z,10.90
2019-04-26T20:26:26.359Z,10.90
2019-04-26T20:29:11.827Z,10.80
2019-04-26T20:32:02.166Z,10.80
2019-04-26T20:35:01.016Z,10.70
2019-04-26T20:37:46.011Z,10.70
2019-04-26T20:40:30.768Z,10.70
2019-04-26T20:43:24.341Z,10.70
2019-04-26T20:46:14.453Z,10.70
2019-04-26T20:48:52.010Z,10.60
2019-04-26T20:51:42.198Z,10.60
2019-04-26T20:54:24.516Z,10.60
2019-04-26T20:57:09.649Z,10.50
2019-04-26T21:00:01.513Z,10.50
2019-04-26T21:02:41.810Z,10.40
2019-04-26T21:05:28.191Z,10.50
2019-04-26T21:08:13.161Z,10.50
2019-04-26T21:11:00.278Z,10.50
2019-04-26T21:13:45.432Z,10.40
2019-04-26T21:16:32.282Z,10.30
2019-04-26T21:19:18.920Z,10.30
2019-04-26T21:22:05.992Z,10.30
2019-04-26T21:25:02.510Z,10.30
2019-04-26T21:28:06.726Z,10.30
2019-04-26T21:30:57.155Z,10.30
2019-04-26T21:33:58.767Z,10.30
2019-04-26T21:36:59.121Z,10.20
2019-04-26T21:39:47.587Z,10.20
2019-04-26T21:42:33.405Z,10.20
2019-04-26T21:45:21.637Z,10.30
2019-04-26T21:48:06.822Z,10.20
2019-04-26T21:50:53.783Z,10.20
2019-04-26T21:53:42.164Z,10.10
2019-04-26T21:56:27.179Z,10.00
2019-04-26T21:59:13.781Z,9.90
2019-04-26T22:01:59.470Z,9.90
2019-04-26T22:04:46.216Z,9.90
2019-04-26T22:07:32.821Z,10.00
2019-04-26T22:10:19.971Z,10.00
2019-04-26T22:13:08.708Z,10.00
2019-04-26T22:15:58.115Z,9.90
2019-04-26T22:18:50.551Z,9.90
2019-04-26T22:21:44.892Z,9.90
2019-04-26T22:24:33.692Z,9.90
2019-04-26T22:27:21.786Z,9.80
2019-04-26T22:30:13.317Z,9.80
2019-04-26T22:32:58.515Z,9.80
2019-04-26T22:35:44.515Z,9.70
2019-04-26T22:38:29.724Z,9.80
2019-04-26T22:41:14.483Z,9.80
2019-04-26T22:44:09.950Z,9.80
2019-04-26T22:47:14.101Z,9.70
2019-04-26T22:49:59.575Z,9.70
2019-04-26T22:52:51.349Z,9.60
2019-04-26T22:55:33.358Z,9.60
2019-04-26T22:58:20.465Z,9.50
2019-04-26T23:01:06.226Z,9.40
2019-04-26T23:03:53.237Z,9.40
2019-04-26T23:06:42.430Z,9.30
2019-04-26T23:09:25.938Z,9.20
2019-04-26T23:12:16.384Z,9.30
2019-04-26T23:15:04.685Z,9.40
2019-04-26T23:17:57.100Z,9.40
2019-04-26T23:20:46.460Z,9.40
2019-04-26T23:23:33.018Z,9.30
2019-04-26T23:26:18.439Z,9.30
2019-04-26T23:29:03.858Z,9.20
2019-04-26T23:31:49.290Z,9.20
2019-04-26T23:34:35.499Z,9.20
2019-04-26T23:37:26.020Z,9.20
2019-04-26T23:40:07.679Z,9.20
2019-04-26T23:42:54.487Z,9.00
2019-04-26T23:45:41.961Z,8.90
2019-04-26T23:48:26.258Z,8.80
2019-04-26T23:51:10.931Z,8.70
2019-04-26T23:53:57.734Z,8.70
2019-04-26T23:56:43.766Z,8.60
2019-04-26T23:59:28.765Z,8.70
